Xunlong5 — BYGW — position and weather

sailwx.info

Track history (hours):
 
Tides and Currents Weather Stations Pressure Air Temp Water Temp Dewpoint Dewpoint Depression Visibility Wind Speed Wind Dir Waves Ship Positions

Xunlong5

Last reported at 2014-Aug-29 07:10 UTC. Time now 2014-Aug-29 20:21 UTC.
Position N 22°20' E 114°05'.

Length 34 m; draft 1.4 m.

Type: High speed craft. MMSI: 413471870.

Date/timePositionNaut miles runAvg speedWind from/ knotsBaromVisibWave heightAir tempDewpointWater temp
2014-Aug-29 07:10N 22°20' E 114°05'4 5.8
2014-Aug-29 06:34N 22°18' E 114°09'1312.9
2014-Aug-29 05:33N 22°22' E 113°55'7 6.8
2014-Aug-29 04:31N 22°29' E 113°55'0 0.0
2014-Aug-29 03:31N 22°29' E 113°55'0 0.0
2014-Aug-29 02:28N 22°29' E 113°55'0 0.0
2014-Aug-29 01:28N 22°29' E 113°55'0 0.0
2014-Aug-29 00:28N 22°29' E 113°55'0 0.0
2014-Aug-28 23:28N 22°29' E 113°55'0 0.1
2014-Aug-28 22:31N 22°29' E 113°54'0 0.1
2014-Aug-28 21:28N 22°29' E 113°55'0 0.0
2014-Aug-28 20:28N 22°29' E 113°55'0 0.0
2014-Aug-28 19:31N 22°29' E 113°55'0 0.0
2014-Aug-28 18:28N 22°29' E 113°55'0 0.0
2014-Aug-28 17:28N 22°29' E 113°55'0 0.0
2014-Aug-28 16:28N 22°29' E 113°55'0 0.0
2014-Aug-28 15:28N 22°29' E 113°55'0 0.0
2014-Aug-28 14:22N 22°29' E 113°55'0 0.0
2014-Aug-28 13:28N 22°29' E 113°55'0 0.0
2014-Aug-28 12:28N 22°29' E 113°55'0 0.0
2014-Aug-28 11:28N 22°29' E 113°55'0 0.0
2014-Aug-28 10:28N 22°29' E 113°55'0 0.0
2014-Aug-28 09:31N 22°29' E 113°55'0 0.0
2014-Aug-28 08:28N 22°29' E 113°55'0 0.0
2014-Aug-28 07:22N 22°29' E 113°55'0 0.0
2014-Aug-28 06:34N 22°29' E 113°55'0 0.0
2014-Aug-28 05:34N 22°29' E 113°55'0 0.0
2014-Aug-28 04:33N 22°29' E 113°55'0 0.0
2014-Aug-28 03:33N 22°29' E 113°55'0 0.0
2014-Aug-28 02:33N 22°29' E 113°55'0 0.0
2014-Aug-28 01:34N 22°29' E 113°55'0 0.1
2014-Aug-28 00:34N 22°29' E 113°54'0 0.1
2014-Aug-27 23:33N 22°29' E 113°55'0 0.1
2014-Aug-27 22:33N 22°29' E 113°54'0 0.1
2014-Aug-27 21:33N 22°29' E 113°55'0 0.0
2014-Aug-27 20:33N 22°29' E 113°55'0 0.0
2014-Aug-27 19:33N 22°29' E 113°55'0 0.0
2014-Aug-27 18:33N 22°29' E 113°55'0 0.0
2014-Aug-27 17:33N 22°29' E 113°55'0 0.0
2014-Aug-27 16:33N 22°29' E 113°55'0 0.0
2014-Aug-27 15:33N 22°29' E 113°55'0 0.0
2014-Aug-27 14:33N 22°29' E 113°55'8 8.3
2014-Aug-27 13:33N 22°22' E 113°50'1818.3
2014-Aug-27 12:33N 22°10' E 113°35'1817.7
2014-Aug-27 11:33N 22°26' E 113°44'3 2.5
2014-Aug-27 10:33N 22°28' E 113°44'1918.8
2014-Aug-27 09:33N 22°12' E 113°34'1818.1
2014-Aug-27 08:34N 22°27' E 113°44'1 0.9
2014-Aug-27 07:31N 22°27' E 113°43'1717.8
2014-Aug-27 06:33N 22°12' E 113°34'1414.4
2014-Aug-27 05:34N 22°24' E 113°42'6 5.5
2014-Aug-27 04:31N 22°29' E 113°45'2121.7
2014-Aug-27 03:32N 22°10' E 113°35'1515.6
2014-Aug-27 02:33N 22°23' E 113°43'1310.7
2014-Aug-27 01:22N 22°35' E 113°48'2227.7
2014-Aug-27 00:33N 22°14' E 113°39'6 4.9
2014-Aug-26 23:21N 22°10' E 113°35'0 0.0
2014-Aug-26 19:21N 22°10' E 113°35'0 0.0
2014-Aug-26 18:03N 22°10' E 113°35'0 0.0
2014-Aug-26 17:09N 22°10' E 113°35'0 0.0
2014-Aug-26 15:21N 22°10' E 113°35'0 0.0
2014-Aug-26 14:21N 22°10' E 113°35'0 0.0
2014-Aug-26 13:33N 22°10' E 113°35'0 0.0
2014-Aug-26 12:33N 22°10' E 113°35'2322.6
2014-Aug-26 11:33N 22°30' E 113°46'6 6.1
2014-Aug-26 10:32N 22°24' E 113°43'1515.5
2014-Aug-26 09:33N 22°12' E 113°34'1313.3
2014-Aug-26 08:34N 22°22' E 113°42'6 5.3
2014-Aug-26 07:30N 22°28' E 113°45'1920.1
2014-Aug-26 06:33N 22°12' E 113°34'1414.5
2014-Aug-26 05:33N 22°23' E 113°43'9 8.5
2014-Aug-26 04:33N 22°31' E 113°47'2424.1
2014-Aug-26 03:33N 22°10' E 113°35'1615.7
2014-Aug-26 02:34N 22°24' E 113°43'12 9.9
2014-Aug-26 01:20N 22°35' E 113°48'2329.4
2014-Aug-26 00:33N 22°13' E 113°39'5 5.2
2014-Aug-25 23:33N 22°10' E 113°35'0 0.0
2014-Aug-25 22:33N 22°10' E 113°35'0 0.0
2014-Aug-25 21:33N 22°10' E 113°35'0 0.0
2014-Aug-25 20:33N 22°10' E 113°35'0 0.0
2014-Aug-25 19:33N 22°10' E 113°35'0 0.0
2014-Aug-25 18:32N 22°10' E 113°35'0 0.0
2014-Aug-25 17:33N 22°10' E 113°35'0 0.0
2014-Aug-25 16:33N 22°10' E 113°35'0 0.0
2014-Aug-25 15:33N 22°10' E 113°35'0 0.0
2014-Aug-25 14:33N 22°10' E 113°35'0 0.0
2014-Aug-25 13:33N 22°10' E 113°35'0 0.0
2014-Aug-25 12:33N 22°10' E 113°35'1414.0
2014-Aug-25 11:33N 22°22' E 113°42'1010.4
2014-Aug-25 10:33N 22°32' E 113°47'2323.3
2014-Aug-25 09:33N 22°12' E 113°34'1212.5
2014-Aug-25 08:33N 22°22' E 113°42'2 0.6
2014-Aug-25 05:29N 22°23' E 113°42'2 0.7
2014-Aug-25 02:34N 22°21' E 113°42'1411.8
2014-Aug-25 01:20N 22°35' E 113°48'2328.7
2014-Aug-25 00:33N 22°14' E 113°39'5 5.1
2014-Aug-24 23:29N 22°10' E 113°35'0 0.0
2014-Aug-24 22:29N 22°10' E 113°35'0 0.0
2014-Aug-24 21:29N 22°10' E 113°35'0 0.0
2014-Aug-24 20:29N 22°10' E 113°35'0 0.0
2014-Aug-24 19:29N 22°10' E 113°35'0 0.0
2014-Aug-24 18:29N 22°10' E 113°35'0 0.0
2014-Aug-24 17:29N 22°10' E 113°35'0 0.0
2014-Aug-24 16:23N 22°10' E 113°35'0 0.0
2014-Aug-24 15:23N 22°10' E 113°35'0 0.0
2014-Aug-24 14:29N 22°10' E 113°35'0 0.0
2014-Aug-24 13:29N 22°10' E 113°35'0 0.0
2014-Aug-24 12:29N 22°10' E 113°35'1516.2
2014-Aug-24 11:33N 22°24' E 113°42'8 8.4
2014-Aug-24 10:33N 22°31' E 113°46'2222.4
2014-Aug-24 09:34N 22°12' E 113°34'1616.4
2014-Aug-24 08:34N 22°25' E 113°44'4 4.4
2014-Aug-24 07:33N 22°29' E 113°46'2120.7
2014-Aug-24 06:33N 22°12' E 113°34'1716.8
2014-Aug-24 05:33N 22°26' E 113°44'5 4.7
2014-Aug-24 04:33N 22°30' E 113°46'2322.1
2014-Aug-24 03:32N 22°10' E 113°35'1515.1
2014-Aug-24 02:33N 22°23' E 113°42'1310.7
2014-Aug-24 01:18N 22°35' E 113°48'2229.4
2014-Aug-24 00:33N 22°15' E 113°39'7 6.6
2014-Aug-23 23:33N 22°10' E 113°35'0 0.0
2014-Aug-23 22:33N 22°10' E 113°35'0 0.0
2014-Aug-23 21:33N 22°10' E 113°35'0 0.0
2014-Aug-23 20:33N 22°10' E 113°35'0 0.0
2014-Aug-23 19:33N 22°10' E 113°35'0 0.0
2014-Aug-23 03:33N 22°10' E 113°35'1918.6
2014-Aug-23 02:34N 22°27' E 113°44'9 7.7
2014-Aug-23 01:21N 22°35' E 113°48'2328.8
2014-Aug-23 00:34N 22°14' E 113°39'6 5.7
2014-Aug-22 23:33N 22°10' E 113°35'0 0.0
2014-Aug-22 22:33N 22°10' E 113°35'0 0.0
2014-Aug-22 21:33N 22°10' E 113°35'0 0.0
2014-Aug-22 20:33N 22°10' E 113°35'0 0.0
2014-Aug-22 19:33N 22°10' E 113°35'0 0.0
2014-Aug-22 18:33N 22°10' E 113°35'0 0.0
2014-Aug-22 17:33N 22°10' E 113°35'0 0.0
2014-Aug-22 16:33N 22°10' E 113°35'0 0.0
2014-Aug-22 15:33N 22°10' E 113°35'0 0.0
2014-Aug-22 14:33N 22°10' E 113°35'0 0.0
2014-Aug-22 13:33N 22°10' E 113°35'0 0.0
2014-Aug-22 12:32N 22°10' E 113°35'2120.9
2014-Aug-22 11:32N 22°29' E 113°45'2 2.3
2014-Aug-22 10:33N 22°31' E 113°46'2222.1
2014-Aug-22 09:33N 22°12' E 113°34'1919.0
2014-Aug-22 08:33N 22°28' E 113°45'2 1.5
2014-Aug-22 07:33N 22°29' E 113°45'2020.5
2014-Aug-22 06:33N 22°12' E 113°34'1616.0
2014-Aug-22 05:34N 22°25' E 113°44'7 6.7
2014-Aug-22 04:34N 22°31' E 113°46'2423.6
2014-Aug-22 03:33N 22°10' E 113°35'1514.5
2014-Aug-22 02:33N 22°23' E 113°42'1310.8
2014-Aug-22 01:20N 22°35' E 113°48'2228.6
2014-Aug-22 00:34N 22°15' E 113°39'6 0.9
2014-Aug-21 17:31N 22°10' E 113°35'0 0.0
2014-Aug-21 16:31N 22°10' E 113°35'0 0.0
2014-Aug-21 15:31N 22°10' E 113°35'0 0.0
2014-Aug-21 14:25N 22°10' E 113°35'0 0.0
2014-Aug-21 13:31N 22°10' E 113°35'0 0.0
2014-Aug-21 12:31N 22°10' E 113°35'1617.1
2014-Aug-21 11:33N 22°24' E 113°43'5 5.1
2014-Aug-21 10:33N 22°29' E 113°45'2020.2
2014-Aug-21 09:33N 22°12' E 113°34'1717.0
2014-Aug-21 08:34N 22°26' E 113°44'4 3.8
2014-Aug-21 07:33N 22°29' E 113°46'2120.7
2014-Aug-21 06:34N 22°12' E 113°34'1515.4
2014-Aug-21 05:34N 22°24' E 113°43'6 5.9
2014-Aug-21 04:33N 22°30' E 113°46'2222.3
2014-Aug-21 03:33N 22°10' E 113°35'1413.5
2014-Aug-21 02:33N 22°22' E 113°42'1411.3
2014-Aug-21 01:18N 22°35' E 113°48'2128.6
2014-Aug-21 00:34N 22°15' E 113°39'6 0.8
2014-Aug-20 16:11N 22°10' E 113°35'0 0.0
2014-Aug-20 15:29N 22°10' E 113°35'0 0.0
2014-Aug-20 14:29N 22°10' E 113°35'0 0.0
2014-Aug-20 13:29N 22°10' E 113°35'0 0.5
2014-Aug-20 12:34N 22°10' E 113°35'2524.4
2014-Aug-20 11:32N 22°33' E 113°47'1 1.3
2014-Aug-20 10:33N 22°31' E 113°46'2322.8
2014-Aug-20 09:33N 22°12' E 113°34'1615.7
2014-Aug-20 08:33N 22°25' E 113°43'5 5.0
2014-Aug-20 07:33N 22°29' E 113°45'2120.4
2014-Aug-20 06:33N 22°12' E 113°34'1515.2
2014-Aug-20 05:34N 22°24' E 113°43'7 7.2
2014-Aug-20 04:33N 22°31' E 113°46'2323.1
2014-Aug-20 03:33N 22°10' E 113°35'1413.8
2014-Aug-20 02:33N 22°22' E 113°42'1412.0
2014-Aug-20 01:22N 22°35' E 113°48'2328.0
2014-Aug-20 00:33N 22°14' E 113°39'6 5.5
2014-Aug-19 23:31N 22°10' E 113°35'0 0.0
2014-Aug-19 22:31N 22°10' E 113°35'0 0.0
2014-Aug-19 21:31N 22°10' E 113°35'0 0.0
2014-Aug-19 20:31N 22°10' E 113°35'0 0.0
2014-Aug-19 19:25N 22°10' E 113°35'0 0.0
2014-Aug-19 18:31N 22°10' E 113°35'0 0.0
2014-Aug-19 17:31N 22°10' E 113°35'0 0.0
2014-Aug-19 16:31N 22°10' E 113°35'0 0.0
2014-Aug-19 15:31N 22°10' E 113°35'0 0.0
2014-Aug-19 14:25N 22°10' E 113°35'0 0.0
2014-Aug-19 13:19N 22°10' E 113°35'0 0.0
2014-Aug-19 12:25N 22°10' E 113°35'1518.0
2014-Aug-19 11:34N 22°24' E 113°43'8 8.1
2014-Aug-19 10:33N 22°31' E 113°46'2222.3
2014-Aug-19 09:33N 22°12' E 113°34'1413.7
2014-Aug-19 08:33N 22°23' E 113°42'  
Track history (hours):
 
Tides and Currents Weather Stations Pressure Air Temp Water Temp Dewpoint Dewpoint Depression Visibility Wind Speed Wind Dir Waves Ship Positions

Xunlong5

Last reported at 2014-Aug-29 07:10 UTC. Time now 2014-Aug-29 20:21 UTC.
Position N 22°20' E 114°05'.

Length 34 m; draft 1.4 m.

Type: High speed craft. MMSI: 413471870.

Date/timePositionNaut miles runAvg speedWind from/ knotsBaromVisibWave heightAir tempDewpointWater temp
2014-Aug-29 07:10N 22°20' E 114°05'4 5.8
2014-Aug-29 06:34N 22°18' E 114°09'1312.9
2014-Aug-29 05:33N 22°22' E 113°55'7 6.8
2014-Aug-29 04:31N 22°29' E 113°55'0 0.0
2014-Aug-29 03:31N 22°29' E 113°55'0 0.0
2014-Aug-29 02:28N 22°29' E 113°55'0 0.0
2014-Aug-29 01:28N 22°29' E 113°55'0 0.0
2014-Aug-29 00:28N 22°29' E 113°55'0 0.0
2014-Aug-28 23:28N 22°29' E 113°55'0 0.1
2014-Aug-28 22:31N 22°29' E 113°54'0 0.1
2014-Aug-28 21:28N 22°29' E 113°55'0 0.0
2014-Aug-28 20:28N 22°29' E 113°55'0 0.0
2014-Aug-28 19:31N 22°29' E 113°55'0 0.0
2014-Aug-28 18:28N 22°29' E 113°55'0 0.0
2014-Aug-28 17:28N 22°29' E 113°55'0 0.0
2014-Aug-28 16:28N 22°29' E 113°55'0 0.0
2014-Aug-28 15:28N 22°29' E 113°55'0 0.0
2014-Aug-28 14:22N 22°29' E 113°55'0 0.0
2014-Aug-28 13:28N 22°29' E 113°55'0 0.0
2014-Aug-28 12:28N 22°29' E 113°55'0 0.0
2014-Aug-28 11:28N 22°29' E 113°55'0 0.0
2014-Aug-28 10:28N 22°29' E 113°55'0 0.0
2014-Aug-28 09:31N 22°29' E 113°55'0 0.0
2014-Aug-28 08:28N 22°29' E 113°55'0 0.0
2014-Aug-28 07:22N 22°29' E 113°55'0 0.0
2014-Aug-28 06:34N 22°29' E 113°55'0 0.0
2014-Aug-28 05:34N 22°29' E 113°55'0 0.0
2014-Aug-28 04:33N 22°29' E 113°55'0 0.0
2014-Aug-28 03:33N 22°29' E 113°55'0 0.0
2014-Aug-28 02:33N 22°29' E 113°55'0 0.0
2014-Aug-28 01:34N 22°29' E 113°55'0 0.1
2014-Aug-28 00:34N 22°29' E 113°54'0 0.1
2014-Aug-27 23:33N 22°29' E 113°55'0 0.1
2014-Aug-27 22:33N 22°29' E 113°54'0 0.1
2014-Aug-27 21:33N 22°29' E 113°55'0 0.0
2014-Aug-27 20:33N 22°29' E 113°55'0 0.0
2014-Aug-27 19:33N 22°29' E 113°55'0 0.0
2014-Aug-27 18:33N 22°29' E 113°55'0 0.0
2014-Aug-27 17:33N 22°29' E 113°55'0 0.0
2014-Aug-27 16:33N 22°29' E 113°55'0 0.0
2014-Aug-27 15:33N 22°29' E 113°55'0 0.0
2014-Aug-27 14:33N 22°29' E 113°55'8 8.3
2014-Aug-27 13:33N 22°22' E 113°50'1818.3
2014-Aug-27 12:33N 22°10' E 113°35'1817.7
2014-Aug-27 11:33N 22°26' E 113°44'3 2.5
2014-Aug-27 10:33N 22°28' E 113°44'1918.8
2014-Aug-27 09:33N 22°12' E 113°34'1818.1
2014-Aug-27 08:34N 22°27' E 113°44'1 0.9
2014-Aug-27 07:31N 22°27' E 113°43'1717.8
2014-Aug-27 06:33N 22°12' E 113°34'1414.4
2014-Aug-27 05:34N 22°24' E 113°42'6 5.5
2014-Aug-27 04:31N 22°29' E 113°45'2121.7
2014-Aug-27 03:32N 22°10' E 113°35'1515.6
2014-Aug-27 02:33N 22°23' E 113°43'1310.7
2014-Aug-27 01:22N 22°35' E 113°48'2227.7
2014-Aug-27 00:33N 22°14' E 113°39'6 4.9
2014-Aug-26 23:21N 22°10' E 113°35'0 0.0
2014-Aug-26 19:21N 22°10' E 113°35'0 0.0
2014-Aug-26 18:03N 22°10' E 113°35'0 0.0
2014-Aug-26 17:09N 22°10' E 113°35'0 0.0
2014-Aug-26 15:21N 22°10' E 113°35'0 0.0
2014-Aug-26 14:21N 22°10' E 113°35'0 0.0
2014-Aug-26 13:33N 22°10' E 113°35'0 0.0
2014-Aug-26 12:33N 22°10' E 113°35'2322.6
2014-Aug-26 11:33N 22°30' E 113°46'6 6.1
2014-Aug-26 10:32N 22°24' E 113°43'1515.5
2014-Aug-26 09:33N 22°12' E 113°34'1313.3
2014-Aug-26 08:34N 22°22' E 113°42'6 5.3
2014-Aug-26 07:30N 22°28' E 113°45'1920.1
2014-Aug-26 06:33N 22°12' E 113°34'1414.5
2014-Aug-26 05:33N 22°23' E 113°43'9 8.5
2014-Aug-26 04:33N 22°31' E 113°47'2424.1
2014-Aug-26 03:33N 22°10' E 113°35'1615.7
2014-Aug-26 02:34N 22°24' E 113°43'12 9.9
2014-Aug-26 01:20N 22°35' E 113°48'2329.4
2014-Aug-26 00:33N 22°13' E 113°39'5 5.2
2014-Aug-25 23:33N 22°10' E 113°35'0 0.0
2014-Aug-25 22:33N 22°10' E 113°35'0 0.0
2014-Aug-25 21:33N 22°10' E 113°35'0 0.0
2014-Aug-25 20:33N 22°10' E 113°35'0 0.0
2014-Aug-25 19:33N 22°10' E 113°35'0 0.0
2014-Aug-25 18:32N 22°10' E 113°35'0 0.0
2014-Aug-25 17:33N 22°10' E 113°35'0 0.0
2014-Aug-25 16:33N 22°10' E 113°35'0 0.0
2014-Aug-25 15:33N 22°10' E 113°35'0 0.0
2014-Aug-25 14:33N 22°10' E 113°35'0 0.0
2014-Aug-25 13:33N 22°10' E 113°35'0 0.0
2014-Aug-25 12:33N 22°10' E 113°35'1414.0
2014-Aug-25 11:33N 22°22' E 113°42'1010.4
2014-Aug-25 10:33N 22°32' E 113°47'2323.3
2014-Aug-25 09:33N 22°12' E 113°34'1212.5
2014-Aug-25 08:33N 22°22' E 113°42'2 0.6
2014-Aug-25 05:29N 22°23' E 113°42'2 0.7
2014-Aug-25 02:34N 22°21' E 113°42'1411.8
2014-Aug-25 01:20N 22°35' E 113°48'2328.7
2014-Aug-25 00:33N 22°14' E 113°39'5 5.1
2014-Aug-24 23:29N 22°10' E 113°35'0 0.0
2014-Aug-24 22:29N 22°10' E 113°35'0 0.0
2014-Aug-24 21:29N 22°10' E 113°35'0 0.0
2014-Aug-24 20:29N 22°10' E 113°35'0 0.0
2014-Aug-24 19:29N 22°10' E 113°35'0 0.0
2014-Aug-24 18:29N 22°10' E 113°35'0 0.0
2014-Aug-24 17:29N 22°10' E 113°35'0 0.0
2014-Aug-24 16:23N 22°10' E 113°35'0 0.0
2014-Aug-24 15:23N 22°10' E 113°35'0 0.0
2014-Aug-24 14:29N 22°10' E 113°35'0 0.0
2014-Aug-24 13:29N 22°10' E 113°35'0 0.0
2014-Aug-24 12:29N 22°10' E 113°35'1516.2
2014-Aug-24 11:33N 22°24' E 113°42'8 8.4
2014-Aug-24 10:33N 22°31' E 113°46'2222.4
2014-Aug-24 09:34N 22°12' E 113°34'1616.4
2014-Aug-24 08:34N 22°25' E 113°44'4 4.4
2014-Aug-24 07:33N 22°29' E 113°46'2120.7
2014-Aug-24 06:33N 22°12' E 113°34'1716.8
2014-Aug-24 05:33N 22°26' E 113°44'5 4.7
2014-Aug-24 04:33N 22°30' E 113°46'2322.1
2014-Aug-24 03:32N 22°10' E 113°35'1515.1
2014-Aug-24 02:33N 22°23' E 113°42'1310.7
2014-Aug-24 01:18N 22°35' E 113°48'2229.4
2014-Aug-24 00:33N 22°15' E 113°39'7 6.6
2014-Aug-23 23:33N 22°10' E 113°35'0 0.0
2014-Aug-23 22:33N 22°10' E 113°35'0 0.0
2014-Aug-23 21:33N 22°10' E 113°35'0 0.0
2014-Aug-23 20:33N 22°10' E 113°35'0 0.0
2014-Aug-23 19:33N 22°10' E 113°35'0 0.0
2014-Aug-23 03:33N 22°10' E 113°35'1918.6
2014-Aug-23 02:34N 22°27' E 113°44'9 7.7
2014-Aug-23 01:21N 22°35' E 113°48'2328.8
2014-Aug-23 00:34N 22°14' E 113°39'6 5.7
2014-Aug-22 23:33N 22°10' E 113°35'0 0.0
2014-Aug-22 22:33N 22°10' E 113°35'0 0.0
2014-Aug-22 21:33N 22°10' E 113°35'0 0.0
2014-Aug-22 20:33N 22°10' E 113°35'0 0.0
2014-Aug-22 19:33N 22°10' E 113°35'0 0.0
2014-Aug-22 18:33N 22°10' E 113°35'0 0.0
2014-Aug-22 17:33N 22°10' E 113°35'0 0.0
2014-Aug-22 16:33N 22°10' E 113°35'0 0.0
2014-Aug-22 15:33N 22°10' E 113°35'0 0.0
2014-Aug-22 14:33N 22°10' E 113°35'0 0.0
2014-Aug-22 13:33N 22°10' E 113°35'0 0.0
2014-Aug-22 12:32N 22°10' E 113°35'2120.9
2014-Aug-22 11:32N 22°29' E 113°45'2 2.3
2014-Aug-22 10:33N 22°31' E 113°46'2222.1
2014-Aug-22 09:33N 22°12' E 113°34'1919.0
2014-Aug-22 08:33N 22°28' E 113°45'2 1.5
2014-Aug-22 07:33N 22°29' E 113°45'2020.5
2014-Aug-22 06:33N 22°12' E 113°34'1616.0
2014-Aug-22 05:34N 22°25' E 113°44'7 6.7
2014-Aug-22 04:34N 22°31' E 113°46'2423.6
2014-Aug-22 03:33N 22°10' E 113°35'1514.5
2014-Aug-22 02:33N 22°23' E 113°42'1310.8
2014-Aug-22 01:20N 22°35' E 113°48'2228.6
2014-Aug-22 00:34N 22°15' E 113°39'6 0.9
2014-Aug-21 17:31N 22°10' E 113°35'0 0.0
2014-Aug-21 16:31N 22°10' E 113°35'0 0.0
2014-Aug-21 15:31N 22°10' E 113°35'0 0.0
2014-Aug-21 14:25N 22°10' E 113°35'0 0.0
2014-Aug-21 13:31N 22°10' E 113°35'0 0.0
2014-Aug-21 12:31N 22°10' E 113°35'1617.1
2014-Aug-21 11:33N 22°24' E 113°43'5 5.1
2014-Aug-21 10:33N 22°29' E 113°45'2020.2
2014-Aug-21 09:33N 22°12' E 113°34'1717.0
2014-Aug-21 08:34N 22°26' E 113°44'4 3.8
2014-Aug-21 07:33N 22°29' E 113°46'2120.7
2014-Aug-21 06:34N 22°12' E 113°34'1515.4
2014-Aug-21 05:34N 22°24' E 113°43'6 5.9
2014-Aug-21 04:33N 22°30' E 113°46'2222.3
2014-Aug-21 03:33N 22°10' E 113°35'1413.5
2014-Aug-21 02:33N 22°22' E 113°42'1411.3
2014-Aug-21 01:18N 22°35' E 113°48'2128.6
2014-Aug-21 00:34N 22°15' E 113°39'6 0.8
2014-Aug-20 16:11N 22°10' E 113°35'0 0.0
2014-Aug-20 15:29N 22°10' E 113°35'0 0.0
2014-Aug-20 14:29N 22°10' E 113°35'0 0.0
2014-Aug-20 13:29N 22°10' E 113°35'0 0.5
2014-Aug-20 12:34N 22°10' E 113°35'2524.4
2014-Aug-20 11:32N 22°33' E 113°47'1 1.3
2014-Aug-20 10:33N 22°31' E 113°46'2322.8
2014-Aug-20 09:33N 22°12' E 113°34'1615.7
2014-Aug-20 08:33N 22°25' E 113°43'5 5.0
2014-Aug-20 07:33N 22°29' E 113°45'2120.4
2014-Aug-20 06:33N 22°12' E 113°34'1515.2
2014-Aug-20 05:34N 22°24' E 113°43'7 7.2
2014-Aug-20 04:33N 22°31' E 113°46'2323.1
2014-Aug-20 03:33N 22°10' E 113°35'1413.8
2014-Aug-20 02:33N 22°22' E 113°42'1412.0
2014-Aug-20 01:22N 22°35' E 113°48'2328.0
2014-Aug-20 00:33N 22°14' E 113°39'6 5.5
2014-Aug-19 23:31N 22°10' E 113°35'0 0.0
2014-Aug-19 22:31N 22°10' E 113°35'0 0.0
2014-Aug-19 21:31N 22°10' E 113°35'0 0.0
2014-Aug-19 20:31N 22°10' E 113°35'0 0.0
2014-Aug-19 19:25N 22°10' E 113°35'0 0.0
2014-Aug-19 18:31N 22°10' E 113°35'0 0.0
2014-Aug-19 17:31N 22°10' E 113°35'0 0.0
2014-Aug-19 16:31N 22°10' E 113°35'0 0.0
2014-Aug-19 15:31N 22°10' E 113°35'0 0.0
2014-Aug-19 14:25N 22°10' E 113°35'0 0.0
2014-Aug-19 13:19N 22°10' E 113°35'0 0.0
2014-Aug-19 12:25N 22°10' E 113°35'1518.0
2014-Aug-19 11:34N 22°24' E 113°43'8 8.1
2014-Aug-19 10:33N 22°31' E 113°46'2222.3
2014-Aug-19 09:33N 22°12' E 113°34'1413.7
2014-Aug-19 08:33N 22°23' E 113°42'  

Dump ship's entire track history